createdAt,value
2023-03-20T00:02:22.452Z,33.58
2023-03-20T00:04:51.156Z,19.45
2023-03-20T00:07:19.521Z,23.88
2023-03-20T00:09:49.659Z,26.05
2023-03-20T00:12:22.237Z,27.92
2023-03-20T00:14:52.439Z,26.02
2023-03-20T00:17:21.407Z,29.40
2023-03-20T00:19:51.642Z,34.78
2023-03-20T00:22:24.685Z,28.00
2023-03-20T00:24:52.945Z,21.88
2023-03-20T00:27:25.989Z,24.52
2023-03-20T00:29:56.950Z,27.40
2023-03-20T00:32:27.652Z,28.60
2023-03-20T00:35:05.544Z,24.40
2023-03-20T00:37:37.383Z,24.13
2023-03-20T00:40:09.699Z,30.48
2023-03-20T00:42:37.799Z,24.27
2023-03-20T00:45:06.472Z,33.60
2023-03-20T00:47:44.096Z,28.85
2023-03-20T00:50:49.774Z,33.88
2023-03-20T00:53:18.217Z,22.48
2023-03-20T00:55:46.393Z,33.92
2023-03-20T00:58:15.992Z,33.67
2023-03-20T01:00:45.605Z,29.67
2023-03-20T01:03:20.824Z,27.17
2023-03-20T01:05:50.256Z,28.58
2023-03-20T01:08:23.217Z,38.50
2023-03-20T01:10:55.855Z,30.27
2023-03-20T01:13:26.836Z,30.25
2023-03-20T01:15:55.739Z,26.17
2023-03-20T01:18:24.210Z,31.73
2023-03-20T01:20:53.533Z,39.10
2023-03-20T01:23:26.923Z,36.00
2023-03-20T01:25:55.294Z,35.60
2023-03-20T01:28:24.832Z,36.53
2023-03-20T01:30:53.315Z,34.88
2023-03-20T01:33:42.104Z,28.63
2023-03-20T01:36:12.160Z,30.65
2023-03-20T01:38:40.490Z,35.88
2023-03-20T01:41:17.328Z,41.90
2023-03-20T01:43:49.307Z,32.28
2023-03-20T01:46:28.721Z,31.08
2023-03-20T01:49:29.445Z,31.20
2023-03-20T01:52:03.425Z,32.05
2023-03-20T01:54:37.278Z,30.55
2023-03-20T01:57:15.081Z,30.38
2023-03-20T01:59:46.160Z,32.88
2023-03-20T02:02:21.766Z,31.42
2023-03-20T02:04:53.314Z,34.45
2023-03-20T02:07:23.192Z,35.65
2023-03-20T02:10:08.952Z,26.23
2023-03-20T02:13:55.331Z,29.55
2023-03-20T02:16:26.414Z,29.52
2023-03-20T02:19:05.306Z,31.10
2023-03-20T02:21:44.067Z,31.63
2023-03-20T02:24:32.514Z,39.10
2023-03-20T02:27:34.479Z,33.53
2023-03-20T02:30:17.523Z,29.67
2023-03-20T02:33:05.515Z,26.02
2023-03-20T02:35:53.649Z,31.52
2023-03-20T02:38:25.482Z,35.63
2023-03-20T02:41:18.023Z,38.30
2023-03-20T02:44:19.758Z,28.25
2023-03-20T02:47:02.079Z,29.85
2023-03-20T02:49:54.438Z,32.97
2023-03-20T02:52:31.418Z,38.10
2023-03-20T02:55:02.262Z,35.92
2023-03-20T02:57:51.458Z,45.97
2023-03-20T03:00:36.779Z,35.28
2023-03-20T03:03:13.337Z,41.38
2023-03-20T03:05:50.064Z,29.42
2023-03-20T03:08:20.868Z,38.40
2023-03-20T03:10:58.524Z,35.22
2023-03-20T03:13:29.404Z,38.72
2023-03-20T03:16:03.444Z,40.35
2023-03-20T03:18:32.364Z,31.92
2023-03-20T03:21:04.049Z,34.15
2023-03-20T03:23:48.114Z,39.92
2023-03-20T03:26:24.940Z,45.15
2023-03-20T03:29:07.500Z,44.15
2023-03-20T03:31:37.490Z,34.92
2023-03-20T03:34:08.332Z,37.13
2023-03-20T03:36:49.572Z,39.10
2023-03-20T03:39:22.577Z,28.58
2023-03-20T03:42:08.024Z,31.38
2023-03-20T03:44:52.262Z,43.50
2023-03-20T03:47:26.321Z,39.03
2023-03-20T03:49:57.968Z,45.83
2023-03-20T03:52:26.237Z,34.90
2023-03-20T03:55:03.787Z,57.55
2023-03-20T03:57:39.158Z,42.67
2023-03-20T04:00:13.136Z,34.47
2023-03-20T04:02:45.887Z,44.00
2023-03-20T04:05:17.751Z,42.00
2023-03-20T04:07:50.415Z,43.88
2023-03-20T04:10:18.599Z,43.45
2023-03-20T04:12:48.030Z,41.67
2023-03-20T04:15:17.827Z,39.55
2023-03-20T04:17:48.085Z,31.92
2023-03-20T04:20:18.049Z,38.25
2023-03-20T04:22:47.845Z,43.00
2023-03-20T04:25:43.400Z,34.72
2023-03-20T04:28:16.393Z,39.47
2023-03-20T04:31:14.397Z,37.25
2023-03-20T04:34:06.089Z,43.05
2023-03-20T04:36:34.066Z,44.22
2023-03-20T04:39:04.046Z,51.88
2023-03-20T04:41:32.313Z,47.15
2023-03-20T04:44:02.304Z,36.53
2023-03-20T04:46:33.697Z,48.00
2023-03-20T04:49:07.971Z,55.25
2023-03-20T04:51:36.145Z,46.47
2023-03-20T04:54:05.066Z,46.90
2023-03-20T04:56:33.445Z,47.97
2023-03-20T04:59:27.882Z,38.92
2023-03-20T05:01:57.371Z,43.85
2023-03-20T05:04:26.436Z,43.53
2023-03-20T05:06:56.832Z,47.25
2023-03-20T05:09:31.771Z,43.33
2023-03-20T05:12:03.318Z,39.10
2023-03-20T05:14:55.640Z,72.15
2023-03-20T05:17:40.593Z,46.97
2023-03-20T05:20:36.537Z,47.15
2023-03-20T05:23:10.413Z,58.60
2023-03-20T05:26:02.066Z,47.58
2023-03-20T05:29:09.100Z,49.53
2023-03-20T05:31:41.672Z,53.70
2023-03-20T05:34:33.174Z,44.10
2023-03-20T05:37:17.817Z,55.55
2023-03-20T05:40:11.469Z,48.67
2023-03-20T05:42:55.973Z,53.90
2023-03-20T05:45:44.409Z,45.88
2023-03-20T05:49:11.660Z,50.75
2023-03-20T05:57:53.761Z,66.47
2023-03-20T06:00:40.742Z,46.97
2023-03-20T06:03:41.243Z,61.45
2023-03-20T06:06:16.585Z,63.17
2023-03-20T06:08:49.482Z,46.20
2023-03-20T06:11:20.143Z,58.17
2023-03-20T06:13:51.305Z,37.47
2023-03-20T06:16:25.043Z,53.15
2023-03-20T06:18:54.912Z,54.70
2023-03-20T06:21:24.148Z,53.80
2023-03-20T06:23:52.246Z,60.53
2023-03-20T06:26:23.485Z,49.88
2023-03-20T06:29:05.390Z,52.42
2023-03-20T06:31:35.041Z,55.65
2023-03-20T06:34:05.204Z,68.28
2023-03-20T06:36:45.233Z,59.20
2023-03-20T06:39:20.060Z,49.00
2023-03-20T06:41:49.735Z,52.78
2023-03-20T06:44:18.567Z,46.55
2023-03-20T06:47:08.088Z,57.60
2023-03-20T06:49:37.054Z,55.25
2023-03-20T06:52:07.873Z,72.88
2023-03-20T06:54:38.124Z,49.05
2023-03-20T06:57:06.527Z,61.03
2023-03-20T06:59:35.359Z,55.78
2023-03-20T07:02:04.261Z,52.08
2023-03-20T07:04:37.975Z,60.88
2023-03-20T07:07:11.797Z,52.05
2023-03-20T07:09:42.928Z,48.78
2023-03-20T07:12:16.982Z,53.92
2023-03-20T07:14:47.222Z,51.25
2023-03-20T07:17:19.719Z,50.63
2023-03-20T07:19:50.014Z,48.17
2023-03-20T07:22:22.879Z,57.65
2023-03-20T07:24:55.568Z,48.90
2023-03-20T07:27:33.156Z,50.95
2023-03-20T07:30:03.824Z,57.70
2023-03-20T07:32:37.647Z,48.63
2023-03-20T07:35:07.573Z,56.15
2023-03-20T07:37:37.813Z,48.42
2023-03-20T07:40:10.437Z,54.75
2023-03-20T07:45:55.914Z,58.50
2023-03-20T07:48:24.363Z,55.63
2023-03-20T07:50:55.506Z,44.40
2023-03-20T07:53:25.091Z,50.42
2023-03-20T07:55:54.406Z,41.28
2023-03-20T07:58:22.690Z,47.05
2023-03-20T08:00:51.394Z,51.05
2023-03-20T08:03:21.050Z,55.67
2023-03-20T08:05:58.297Z,42.90
2023-03-20T08:08:33.051Z,45.50
2023-03-20T08:11:01.863Z,33.92
2023-03-20T08:13:30.859Z,48.33
2023-03-20T08:25:56.448Z,45.33
2023-03-20T08:28:40.205Z,45.53
2023-03-20T08:31:22.278Z,45.67
2023-03-20T08:33:53.314Z,44.15
2023-03-20T08:36:33.644Z,61.35
2023-03-20T08:39:11.128Z,39.00
2023-03-20T08:41:48.187Z,50.85
2023-03-20T08:44:27.971Z,44.03
2023-03-20T08:46:56.708Z,50.08
2023-03-20T08:49:48.274Z,45.38
2023-03-20T08:52:18.431Z,42.53
2023-03-20T08:57:43.413Z,29.88
2023-03-20T09:00:14.080Z,37.50
2023-03-20T09:02:45.686Z,38.50
2023-03-20T09:05:17.170Z,39.10
2023-03-20T09:07:47.811Z,46.75
2023-03-20T09:10:37.027Z,37.63
2023-03-20T09:13:26.187Z,48.22
2023-03-20T09:16:07.519Z,40.50
2023-03-20T09:18:37.059Z,41.60
2023-03-20T09:21:06.221Z,39.97
2023-03-20T09:23:35.843Z,35.92
2023-03-20T09:26:06.015Z,46.55
2023-03-20T09:28:35.763Z,34.67
2023-03-20T09:31:08.379Z,43.10
2023-03-20T09:33:39.906Z,33.35
2023-03-20T09:36:12.807Z,26.95
2023-03-20T09:38:43.961Z,41.90
2023-03-20T09:41:25.071Z,40.25
2023-03-20T09:44:02.728Z,23.23
2023-03-20T09:46:36.846Z,37.00
2023-03-20T09:49:33.217Z,36.55
2023-03-20T09:52:06.594Z,33.40
2023-03-20T09:54:53.652Z,38.20
2023-03-20T09:57:35.058Z,34.05
2023-03-20T10:00:19.556Z,44.42
2023-03-20T10:03:19.252Z,34.83
2023-03-20T10:05:57.209Z,44.95
2023-03-20T10:08:28.795Z,39.92
2023-03-20T10:11:23.091Z,34.92
2023-03-20T10:14:25.471Z,41.10
2023-03-20T10:17:47.476Z,40.85
2023-03-20T10:20:40.130Z,38.88
2023-03-20T10:23:23.384Z,26.25
2023-03-20T10:26:00.915Z,31.63
2023-03-20T10:28:58.738Z,27.33
2023-03-20T10:32:00.596Z,32.35
2023-03-20T10:34:54.504Z,32.45
2023-03-20T10:38:31.200Z,30.83
2023-03-20T10:41:09.028Z,22.85
2023-03-20T10:43:50.524Z,30.17
2023-03-20T10:46:53.335Z,30.80
2023-03-20T10:50:07.666Z,27.67
2023-03-20T10:52:41.425Z,33.30
2023-03-20T10:55:17.135Z,29.05
2023-03-20T10:58:01.425Z,36.97
2023-03-20T11:00:39.200Z,33.28
2023-03-20T11:03:53.696Z,28.65
2023-03-20T11:06:31.110Z,36.47
2023-03-20T11:09:20.003Z,36.83
2023-03-20T11:11:49.962Z,29.17
2023-03-20T11:14:38.047Z,25.83
2023-03-20T11:18:16.766Z,30.73
2023-03-20T11:20:59.443Z,31.15
2023-03-20T11:23:35.936Z,24.15
2023-03-20T11:28:43.658Z,28.70
2023-03-20T11:31:12.118Z,30.45
2023-03-20T11:34:01.797Z,41.33
2023-03-20T11:36:35.727Z,37.95
2023-03-20T11:39:14.671Z,43.22
2023-03-20T11:41:55.842Z,33.83
2023-03-20T11:44:29.684Z,45.80
2023-03-20T11:47:05.972Z,30.38
2023-03-20T11:49:51.929Z,28.15
2023-03-20T11:52:40.788Z,35.70
2023-03-20T11:55:58.814Z,33.72
2023-03-20T11:58:29.825Z,32.92
2023-03-20T12:01:01.704Z,29.90
2023-03-20T12:03:58.608Z,38.22
2023-03-20T12:06:28.753Z,43.15
2023-03-20T12:09:04.469Z,27.35
2023-03-20T12:11:42.041Z,31.05
2023-03-20T12:14:17.467Z,32.58
2023-03-20T12:16:53.712Z,29.58
2023-03-20T12:19:30.842Z,25.75
2023-03-20T12:22:21.817Z,24.25
2023-03-20T12:25:17.252Z,29.33
2023-03-20T12:28:27.000Z,31.98
2023-03-20T12:31:04.850Z,32.60
2023-03-20T12:34:01.551Z,25.08
2023-03-20T12:36:41.840Z,26.07
2023-03-20T12:39:13.796Z,36.70
2023-03-20T12:42:04.978Z,34.65
2023-03-20T12:44:57.779Z,25.92
2023-03-20T12:47:35.289Z,29.33
2023-03-20T12:50:42.071Z,24.27
2023-03-20T12:53:26.800Z,29.42
2023-03-20T12:56:16.271Z,27.50
2023-03-20T12:59:11.683Z,25.67
2023-03-20T13:04:30.792Z,31.88
2023-03-20T13:07:00.976Z,37.88
2023-03-20T13:10:08.653Z,33.53
2023-03-20T13:12:52.800Z,35.95
2023-03-20T13:15:58.469Z,32.33
2023-03-20T13:18:41.714Z,29.27
2023-03-20T13:21:16.324Z,26.05
2023-03-20T13:24:27.753Z,25.98
2023-03-20T13:27:30.056Z,31.80
2023-03-20T13:30:16.699Z,28.58
2023-03-20T13:32:57.321Z,28.42
2023-03-20T13:35:34.109Z,22.35
2023-03-20T13:38:40.974Z,25.88
2023-03-20T13:44:03.467Z,30.58
2023-03-20T13:47:08.577Z,26.45
2023-03-20T13:49:38.126Z,20.95
2023-03-20T13:52:19.724Z,30.15
2023-03-20T13:55:22.837Z,25.85
2023-03-20T13:58:11.938Z,29.83
2023-03-20T14:00:56.052Z,71.18
2023-03-20T14:03:28.852Z,29.75
2023-03-20T14:05:57.130Z,26.65
2023-03-20T14:08:28.144Z,31.45
2023-03-20T14:11:17.139Z,31.90
2023-03-20T14:13:48.210Z,34.30
2023-03-20T14:16:20.136Z,19.58
2023-03-20T14:18:52.622Z,30.20
2023-03-20T14:21:24.121Z,24.88
2023-03-20T14:23:57.430Z,28.25
2023-03-20T14:26:29.582Z,39.78
2023-03-20T14:29:19.730Z,33.60
2023-03-20T14:31:52.406Z,37.22
2023-03-20T14:34:22.102Z,31.30
2023-03-20T14:37:03.995Z,30.88
2023-03-20T14:39:47.417Z,28.13
2023-03-20T14:42:27.763Z,26.92
2023-03-20T14:45:17.474Z,27.17
2023-03-20T14:47:52.468Z,32.50
2023-03-20T14:50:32.346Z,23.45
2023-03-20T14:53:20.441Z,36.08
2023-03-20T14:55:54.053Z,39.25
2023-03-20T14:58:49.367Z,30.50
2023-03-20T15:01:26.997Z,23.00
2023-03-20T15:04:06.930Z,31.85
2023-03-20T15:06:36.781Z,27.33
2023-03-20T15:09:07.715Z,32.33
2023-03-20T15:29:05.955Z,37.28
2023-03-20T15:31:41.528Z,36.30
2023-03-20T15:34:14.545Z,33.95
2023-03-20T15:36:43.995Z,28.35
2023-03-20T15:39:16.232Z,27.67
2023-03-20T15:42:00.150Z,30.30
2023-03-20T15:44:40.543Z,32.10
2023-03-20T15:47:21.500Z,31.48
2023-03-20T15:49:53.035Z,39.58
2023-03-20T15:53:02.342Z,41.70
2023-03-20T15:55:34.719Z,23.77
2023-03-20T15:58:05.328Z,32.80
2023-03-20T16:00:34.928Z,35.97
2023-03-20T16:03:05.718Z,31.20
2023-03-20T16:05:34.081Z,26.35
2023-03-20T16:08:16.138Z,31.48
2023-03-20T16:10:46.052Z,31.35
2023-03-20T16:13:18.564Z,41.53
2023-03-20T16:16:29.116Z,35.67
2023-03-20T16:19:02.757Z,33.20
2023-03-20T16:22:53.188Z,35.55
2023-03-20T16:25:24.960Z,34.95
2023-03-20T16:27:58.953Z,35.92
2023-03-20T16:30:30.948Z,36.55
2023-03-20T16:33:11.584Z,34.92
2023-03-20T16:39:19.683Z,35.55
2023-03-20T16:41:53.593Z,42.42
2023-03-20T16:44:29.720Z,38.97
2023-03-20T16:47:21.444Z,29.13
2023-03-20T16:50:20.277Z,36.97
2023-03-20T16:52:56.510Z,36.92
2023-03-20T16:55:32.011Z,30.83
2023-03-20T16:58:06.490Z,39.15
2023-03-20T17:00:59.030Z,34.50
2023-03-20T17:03:56.727Z,41.97
2023-03-20T17:06:35.971Z,42.10
2023-03-20T17:09:31.413Z,34.95
2023-03-20T17:12:12.871Z,45.58
2023-03-20T17:14:41.970Z,41.03
2023-03-20T17:17:19.723Z,41.97
2023-03-20T17:19:54.476Z,35.88
2023-03-20T17:22:24.935Z,40.35
2023-03-20T17:24:56.842Z,40.72
2023-03-20T17:27:25.655Z,41.58
2023-03-20T17:29:53.792Z,44.45
2023-03-20T17:32:25.730Z,45.60
2023-03-20T17:34:53.864Z,41.40
2023-03-20T17:37:30.016Z,38.72
2023-03-20T17:40:00.971Z,43.15
2023-03-20T17:42:32.388Z,77.93
2023-03-20T17:45:03.793Z,98.03
2023-03-20T17:47:44.304Z,144.98
2023-03-20T17:50:28.070Z,179.73
2023-03-20T17:52:57.376Z,178.82
2023-03-20T17:55:25.964Z,180.30
2023-03-20T17:57:54.746Z,159.45
2023-03-20T18:00:31.865Z,179.73
2023-03-20T18:03:00.116Z,195.23
2023-03-20T18:05:28.799Z,195.68
2023-03-20T18:07:56.889Z,215.82
2023-03-20T18:10:31.966Z,210.60
2023-03-20T18:13:01.490Z,184.75
2023-03-20T18:15:30.488Z,190.15
2023-03-20T18:17:59.749Z,208.10
2023-03-20T18:20:36.591Z,167.00
2023-03-20T18:23:06.913Z,156.90
2023-03-20T18:25:36.017Z,142.90
2023-03-20T18:28:13.608Z,146.48
2023-03-20T18:30:42.225Z,168.32
2023-03-20T18:33:14.158Z,135.50
2023-03-20T18:42:57.868Z,124.32
2023-03-20T18:45:27.553Z,141.77
2023-03-20T18:48:16.914Z,139.05
2023-03-20T18:51:05.134Z,178.10
2023-03-20T18:53:35.042Z,150.98
2023-03-20T18:56:04.575Z,140.27
2023-03-20T18:58:39.580Z,155.35
2023-03-20T19:01:08.071Z,131.20
2023-03-20T19:03:56.508Z,141.00
2023-03-20T19:06:25.618Z,148.93
2023-03-20T19:08:54.719Z,149.23
2023-03-20T19:11:22.824Z,157.38
2023-03-20T19:13:52.683Z,140.32
2023-03-20T19:16:32.067Z,172.40
2023-03-20T19:19:05.765Z,156.20
2023-03-20T19:21:34.606Z,169.55
2023-03-20T19:24:09.281Z,152.25
2023-03-20T19:26:39.004Z,152.30
2023-03-20T19:29:11.755Z,125.03
2023-03-20T19:31:40.467Z,120.28
2023-03-20T19:34:36.751Z,129.30
2023-03-20T19:37:07.447Z,112.78
2023-03-20T19:39:39.715Z,121.88
2023-03-20T19:42:38.945Z,138.75
2023-03-20T19:45:19.539Z,135.45
2023-03-20T19:47:49.484Z,138.75
2023-03-20T19:50:30.327Z,147.35
2023-03-20T19:52:59.620Z,162.13
2023-03-20T19:55:37.167Z,149.00
2023-03-20T19:58:12.753Z,153.43
2023-03-20T20:00:59.523Z,155.85
2023-03-20T20:03:44.629Z,175.90
2023-03-20T20:06:16.159Z,761.90
2023-03-20T20:08:48.730Z,817.08
2023-03-20T20:11:24.112Z,668.55
2023-03-20T20:14:13.363Z,443.02
2023-03-20T20:16:43.947Z,553.30
2023-03-20T20:19:15.983Z,482.83
2023-03-20T20:22:25.640Z,355.50
2023-03-20T20:25:00.470Z,380.10
2023-03-20T20:27:34.886Z,403.65
2023-03-20T20:30:08.059Z,404.95
2023-03-20T20:32:39.846Z,409.58
2023-03-20T20:40:50.388Z,444.23
2023-03-20T20:43:47.307Z,443.65
2023-03-20T20:46:11.307Z,336.80
2023-03-20T20:48:54.130Z,215.60
2023-03-20T20:51:33.938Z,271.40
2023-03-20T20:54:02.226Z,263.60
2023-03-20T20:56:31.975Z,293.33
2023-03-20T20:59:02.775Z,308.95
2023-03-20T21:01:33.258Z,262.35
2023-03-20T21:04:03.739Z,245.20
2023-03-20T21:07:06.324Z,216.35
2023-03-20T21:09:26.373Z,185.48
2023-03-20T21:12:04.303Z,213.20
2023-03-20T21:14:35.196Z,187.80
2023-03-20T21:17:05.208Z,195.27
2023-03-20T21:19:37.512Z,153.00
2023-03-20T21:22:09.526Z,133.85
2023-03-20T21:24:41.459Z,128.52
2023-03-20T21:27:16.762Z,149.65
2023-03-20T21:32:23.199Z,140.38
2023-03-20T21:35:12.455Z,158.38
2023-03-20T21:40:39.263Z,138.85
2023-03-20T21:43:07.428Z,145.90
2023-03-20T21:46:23.423Z,131.20
2023-03-20T21:57:34.364Z,133.55
2023-03-20T22:00:22.630Z,129.60
2023-03-20T22:02:38.602Z,138.52
2023-03-20T22:05:58.671Z,132.43
2023-03-20T22:11:40.629Z,127.43
2023-03-20T22:20:18.453Z,126.85
2023-03-20T22:25:39.130Z,137.55
2023-03-20T22:28:28.501Z,166.25
2023-03-20T22:37:17.049Z,167.45
2023-03-20T22:39:54.429Z,144.45
2023-03-20T22:45:03.829Z,145.15
2023-03-20T22:47:34.543Z,132.63
2023-03-20T22:50:05.765Z,131.77
2023-03-20T22:52:48.114Z,138.25
2023-03-20T22:55:20.802Z,137.60
2023-03-20T22:58:06.317Z,110.50
2023-03-20T23:00:40.313Z,123.32
2023-03-20T23:03:22.441Z,112.55
2023-03-20T23:05:55.589Z,123.00
2023-03-20T23:08:25.288Z,113.93
2023-03-20T23:10:54.972Z,111.00
2023-03-20T23:13:23.137Z,114.88
2023-03-20T23:15:51.302Z,114.22
2023-03-20T23:18:20.308Z,114.05
2023-03-20T23:20:50.490Z,112.25
2023-03-20T23:23:19.359Z,118.97
2023-03-20T23:25:49.249Z,111.95
2023-03-20T23:28:18.551Z,100.88
2023-03-20T23:31:11.502Z,112.35
2023-03-20T23:33:52.231Z,106.53
2023-03-20T23:36:42.900Z,105.55
2023-03-20T23:39:11.911Z,110.30
2023-03-20T23:44:31.294Z,110.28
2023-03-20T23:47:03.353Z,93.88
2023-03-20T23:49:42.502Z,107.82
2023-03-20T23:52:12.844Z,94.20
2023-03-20T23:54:45.461Z,97.47
2023-03-20T23:57:20.578Z,94.80
